Time;durP1;ratioP1;P1;durP2;ratioP2;P2;SDS_P1;SDS_P2;PMS_P1;PMS_P2;Temp;Humidity;BMP_temperature;BMP_pressure;BME280_temperature;BME280_humidity;BME280_pressure;Samples;Min_cycle;Max_cycle;Signal;HPM_P1;HPM_P2
2021/08/19 00:01:16;;;;;;;4.57;4.17;;;20.50;96.60;;;;;;5054348;28;20502;-58
2021/08/19 00:03:44;;;;;;;7.43;6.83;;;20.50;96.80;;;;;;5055020;28;20477;-56
2021/08/19 00:06:11;;;;;;;6.60;6.10;;;20.50;96.90;;;;;;5054657;28;20884;-57
2021/08/19 00:08:38;;;;;;;7.80;7.20;;;20.50;97.00;;;;;;5046396;28;20460;-57
2021/08/19 00:11:04;;;;;;;6.77;5.63;;;20.50;97.10;;;;;;5054294;28;20981;-58
2021/08/19 00:13:31;;;;;;;5.87;5.40;;;20.50;97.20;;;;;;5049646;28;20533;-54
2021/08/19 00:15:59;;;;;;;5.57;5.17;;;20.50;97.30;;;;;;5054455;28;20482;-55
2021/08/19 00:18:25;;;;;;;5.33;4.90;;;20.50;97.40;;;;;;5054224;28;20467;-56
2021/08/19 00:20:53;;;;;;;10.37;9.37;;;20.50;97.50;;;;;;5054462;28;20471;-56
2021/08/19 00:23:20;;;;;;;7.50;6.80;;;20.50;97.60;;;;;;5054207;28;20473;-56
2021/08/19 00:25:48;;;;;;;6.60;6.00;;;20.50;97.70;;;;;;5054387;28;20524;-56
2021/08/19 00:28:14;;;;;;;7.50;6.80;;;20.50;97.80;;;;;;5053780;28;20505;-57
2021/08/19 00:30:41;;;;;;;8.80;6.53;;;20.50;97.90;;;;;;5036339;28;20468;-53
2021/08/19 00:33:07;;;;;;;11.10;9.93;;;20.50;97.90;;;;;;5054116;28;20476;-57
2021/08/19 00:35:34;;;;;;;7.30;6.60;;;20.50;98.00;;;;;;5053578;28;20471;-57
2021/08/19 00:38:02;;;;;;;6.70;6.20;;;20.50;98.10;;;;;;5054107;28;20474;-56
2021/08/19 00:40:29;;;;;;;12.53;8.60;;;20.50;98.10;;;;;;5053000;28;20517;-57
2021/08/19 00:42:56;;;;;;;8.63;7.17;;;20.50;98.20;;;;;;5053772;28;20537;-57
2021/08/19 00:45:25;;;;;;;8.10;7.40;;;20.50;98.20;;;;;;5053487;28;20981;-56
2021/08/19 00:47:52;;;;;;;13.07;11.97;;;20.50;98.20;;;;;;5052891;28;20467;-57
2021/08/19 00:50:19;;;;;;;14.30;10.07;;;20.50;98.30;;;;;;5052544;28;20533;-57
2021/08/19 00:52:45;;;;;;;11.40;10.30;;;20.50;98.30;;;;;;5054005;28;20857;-58
2021/08/19 00:55:15;;;;;;;9.53;8.73;;;20.50;98.40;;;;;;5053257;28;20491;-58
2021/08/19 00:57:42;;;;;;;9.27;8.40;;;20.50;98.40;;;;;;5053328;28;20478;-56
2021/08/19 01:00:10;;;;;;;9.90;9.00;;;20.50;98.40;;;;;;5053721;28;20474;-58
2021/08/19 01:02:39;;;;;;;11.47;10.43;;;20.50;98.50;;;;;;5052977;28;20536;-57
2021/08/19 01:05:06;;;;;;;10.20;9.30;;;20.50;98.60;;;;;;5053775;28;20525;-58
2021/08/19 01:07:33;;;;;;;10.30;9.37;;;20.40;98.60;;;;;;5053065;28;20541;-54
2021/08/19 01:10:00;;;;;;;10.63;9.73;;;20.40;98.70;;;;;;5053483;28;20479;-58
2021/08/19 01:12:28;;;;;;;9.77;8.90;;;20.40;98.80;;;;;;5053000;28;20463;-57
2021/08/19 01:14:55;;;;;;;9.07;8.27;;;20.40;98.80;;;;;;5049263;28;21007;-57
2021/08/19 01:17:21;;;;;;;10.73;9.73;;;20.40;98.90;;;;;;5053105;28;20541;-57
2021/08/19 01:19:50;;;;;;;10.90;9.80;;;20.40;99.00;;;;;;5053510;28;20471;-58
2021/08/19 01:22:18;;;;;;;10.77;9.60;;;20.30;99.00;;;;;;5053319;28;20471;-57
2021/08/19 01:24:45;;;;;;;9.90;8.90;;;20.40;99.10;;;;;;5052957;28;20463;-53
2021/08/19 01:27:14;;;;;;;18.00;14.70;;;20.40;99.10;;;;;;5053148;28;20896;-53
2021/08/19 01:29:43;;;;;;;15.50;13.90;;;20.40;99.10;;;;;;5052773;28;20475;-55
2021/08/19 01:32:10;;;;;;;17.80;16.00;;;20.40;99.10;;;;;;5052785;28;20980;-54
2021/08/19 01:34:38;;;;;;;12.27;11.27;;;20.40;99.00;;;;;;5052807;28;20478;-56
2021/08/19 01:37:06;;;;;;;9.40;8.60;;;20.40;99.10;;;;;;5053172;28;20479;-55
2021/08/19 01:39:33;;;;;;;9.90;9.10;;;20.40;99.10;;;;;;5043612;28;20479;-53
2021/08/19 01:41:59;;;;;;;11.23;10.13;;;20.30;99.10;;;;;;5053050;28;20521;-56
2021/08/19 01:44:27;;;;;;;11.57;9.90;;;20.40;99.20;;;;;;5050454;28;20961;-54
2021/08/19 01:46:55;;;;;;;11.10;10.17;;;20.30;99.10;;;;;;5046457;28;20529;-56
2021/08/19 01:49:22;;;;;;;10.53;9.63;;;20.40;99.20;;;;;;5043989;28;20528;-54
2021/08/19 01:51:49;;;;;;;17.33;15.70;;;20.40;99.20;;;;;;5044650;28;20467;-55
2021/08/19 01:54:16;;;;;;;11.57;10.23;;;20.40;99.20;;;;;;5052500;28;20471;-53
2021/08/19 01:56:43;;;;;;;9.77;9.07;;;20.30;99.20;;;;;;5052257;28;20913;-55
2021/08/19 01:59:09;;;;;;;10.70;9.90;;;20.30;99.30;;;;;;5052755;28;20475;-57
2021/08/19 02:01:37;;;;;;;9.23;8.50;;;20.30;99.30;;;;;;5051326;28;20494;-55
2021/08/19 02:04:05;;;;;;;9.70;8.80;;;20.30;99.30;;;;;;5059676;28;20810;-56
2021/08/19 02:06:32;;;;;;;10.47;9.67;;;20.30;99.30;;;;;;5052088;28;20474;-54
2021/08/19 02:08:59;;;;;;;14.30;12.93;;;20.30;99.30;;;;;;5052585;28;20982;-57
2021/08/19 02:11:26;;;;;;;9.37;8.57;;;20.30;99.20;;;;;;5052063;28;20471;-57
2021/08/19 02:13:52;;;;;;;10.40;9.60;;;20.30;99.20;;;;;;5052256;28;20471;-57
2021/08/19 02:16:19;;;;;;;22.40;18.03;;;20.30;99.10;;;;;;5039686;28;20856;-58
2021/08/19 02:18:47;;;;;;;12.43;11.23;;;20.30;99.00;;;;;;5052000;28;20541;-57
2021/08/19 02:21:14;;;;;;;14.30;13.00;;;20.30;99.00;;;;;;5052374;28;20536;-54
2021/08/19 02:23:40;;;;;;;11.17;10.17;;;20.30;99.00;;;;;;5051565;28;20505;-52
2021/08/19 02:26:07;;;;;;;17.50;15.53;;;20.30;99.00;;;;;;5052207;28;20876;-57
2021/08/19 02:28:34;;;;;;;14.17;12.83;;;20.30;99.00;;;;;;5051609;28;20472;-57
2021/08/19 02:31:00;;;;;;;8.90;8.20;;;20.30;98.90;;;;;;5049830;28;20532;-57
2021/08/19 02:33:27;;;;;;;9.30;8.50;;;20.30;98.90;;;;;;5045945;28;20510;-58
2021/08/19 02:35:55;;;;;;;7.70;7.10;;;20.30;98.90;;;;;;5050922;28;20864;-57
2021/08/19 02:38:22;;;;;;;10.23;9.30;;;20.30;98.90;;;;;;5051421;28;20961;-56
2021/08/19 02:40:48;;;;;;;8.87;8.17;;;20.30;99.00;;;;;;5051945;28;20856;-57
2021/08/19 02:43:15;;;;;;;8.63;7.83;;;20.30;99.00;;;;;;5052032;28;20467;-55
2021/08/19 02:45:42;;;;;;;9.47;8.50;;;20.30;99.00;;;;;;5047566;28;20731;-56
2021/08/19 02:48:08;;;;;;;8.37;7.67;;;20.30;99.10;;;;;;5036768;28;20866;-53
2021/08/19 02:50:35;;;;;;;9.97;9.07;;;20.30;99.10;;;;;;5049937;28;20463;-56
2021/08/19 02:53:03;;;;;;;10.57;9.10;;;20.30;99.00;;;;;;5050477;28;20468;-57
2021/08/19 02:55:30;;;;;;;8.73;7.93;;;20.30;99.00;;;;;;5050287;28;20521;-58
2021/08/19 02:57:57;;;;;;;7.57;6.97;;;20.30;99.00;;;;;;5050318;28;20467;-55
2021/08/19 03:00:23;;;;;;;15.20;13.77;;;20.30;99.00;;;;;;5051544;28;20860;-54
2021/08/19 03:02:50;;;;;;;9.57;8.67;;;20.30;98.90;;;;;;5051647;28;20463;-57
2021/08/19 03:05:16;;;;;;;15.27;13.77;;;20.20;98.90;;;;;;5052262;28;20868;-57
2021/08/19 03:07:43;;;;;;;9.43;8.53;;;20.30;98.80;;;;;;5051489;28;20467;-58
2021/08/19 03:10:11;;;;;;;12.90;11.70;;;20.20;98.90;;;;;;5052278;28;20976;-57
2021/08/19 03:12:38;;;;;;;8.23;7.53;;;20.20;98.90;;;;;;5053324;28;20541;-56
2021/08/19 03:15:06;;;;;;;7.50;6.90;;;20.20;98.90;;;;;;5055891;28;20467;-57
2021/08/19 03:17:33;;;;;;;7.53;6.83;;;20.20;99.00;;;;;;5055408;28;20953;-57
2021/08/19 03:20:00;;;;;;;7.80;7.00;;;20.10;99.00;;;;;;5055938;28;20472;-58
2021/08/19 03:22:27;;;;;;;10.20;9.20;;;20.10;99.10;;;;;;5055718;28;20467;-55
2021/08/19 03:24:54;;;;;;;7.47;6.73;;;20.10;99.10;;;;;;5055553;28;21604;-59
2021/08/19 03:27:22;;;;;;;9.03;8.33;;;20.10;99.10;;;;;;5043504;28;20506;-58
2021/08/19 03:29:49;;;;;;;6.90;6.40;;;20.10;99.10;;;;;;5038909;28;20968;-57
2021/08/19 03:32:16;;;;;;;7.53;6.93;;;20.10;99.20;;;;;;5054692;28;20468;-58
2021/08/19 03:34:42;;;;;;;6.90;6.30;;;20.10;99.30;;;;;;5054460;28;20790;-58
2021/08/19 03:37:09;;;;;;;8.00;7.30;;;20.10;99.30;;;;;;5054688;28;20471;-55
2021/08/19 03:39:36;;;;;;;8.63;7.93;;;20.10;99.30;;;;;;5046099;28;21000;-52
2021/08/19 03:42:03;;;;;;;8.27;7.57;;;20.10;99.40;;;;;;5055077;28;20495;-55
2021/08/19 03:44:31;;;;;;;9.20;8.50;;;20.10;99.40;;;;;;5054778;28;20513;-57
2021/08/19 03:46:59;;;;;;;10.33;9.33;;;20.10;99.40;;;;;;5055024;28;20463;-57
2021/08/19 03:49:25;;;;;;;9.57;8.77;;;20.10;99.40;;;;;;5055048;28;20508;-56
2021/08/19 03:51:52;;;;;;;10.77;9.87;;;20.10;99.50;;;;;;5054634;28;20479;-56
2021/08/19 03:54:19;;;;;;;8.70;7.90;;;20.00;99.50;;;;;;5055123;28;20478;-54
2021/08/19 03:56:45;;;;;;;11.37;10.40;;;20.00;99.60;;;;;;5054697;28;20537;-58
2021/08/19 03:59:13;;;;;;;8.50;7.77;;;20.00;99.50;;;;;;5054774;28;20471;-57
2021/08/19 04:01:41;;;;;;;9.93;8.93;;;20.00;99.60;;;;;;5054727;28;20482;-56
2021/08/19 04:04:08;;;;;;;8.03;7.33;;;20.00;99.60;;;;;;5054696;28;20467;-57
2021/08/19 04:06:34;;;;;;;8.00;7.33;;;20.00;99.50;;;;;;5054532;28;20528;-53
2021/08/19 04:09:01;;;;;;;9.00;8.20;;;20.00;99.50;;;;;;5054808;28;20529;-56
2021/08/19 04:11:28;;;;;;;8.00;7.30;;;20.00;99.50;;;;;;5054803;28;20475;-56
2021/08/19 04:13:54;;;;;;;8.70;7.90;;;20.00;99.50;;;;;;5053976;28;20464;-57
2021/08/19 04:16:21;;;;;;;6.50;6.00;;;20.00;99.50;;;;;;5054853;28;20471;-56
2021/08/19 04:18:49;;;;;;;6.37;5.87;;;20.00;99.60;;;;;;5054130;28;20475;-55
2021/08/19 04:21:16;;;;;;;6.00;5.60;;;20.00;99.60;;;;;;5054693;28;20467;-58
2021/08/19 04:23:44;;;;;;;7.80;7.10;;;20.00;99.60;;;;;;5043523;28;20965;-55
2021/08/19 04:26:11;;;;;;;6.90;6.33;;;19.90;99.60;;;;;;5054579;28;20462;-57
2021/08/19 04:28:38;;;;;;;6.57;5.97;;;19.90;99.70;;;;;;5053889;28;20475;-57
2021/08/19 04:31:05;;;;;;;6.77;6.23;;;19.90;99.70;;;;;;5054174;28;20544;-55
2021/08/19 04:33:32;;;;;;;5.23;4.80;;;19.90;99.70;;;;;;5054163;28;20549;-55
2021/08/19 04:36:00;;;;;;;7.20;5.37;;;19.90;99.60;;;;;;5053863;28;20991;-54
2021/08/19 04:38:26;;;;;;;5.83;4.83;;;19.90;99.50;;;;;;5051169;28;21073;-57
2021/08/19 04:40:53;;;;;;;5.40;4.90;;;19.80;99.40;;;;;;5048438;28;20471;-56
2021/08/19 04:43:21;;;;;;;5.37;4.87;;;19.80;99.40;;;;;;5054251;28;20556;-54
2021/08/19 04:45:48;;;;;;;5.97;5.43;;;19.80;99.30;;;;;;5053516;28;20559;-57
2021/08/19 04:48:14;;;;;;;6.73;5.80;;;19.80;99.20;;;;;;5053963;28;20474;-58
2021/08/19 04:50:41;;;;;;;6.20;5.60;;;19.80;99.30;;;;;;5053820;28;20468;-57
2021/08/19 04:53:09;;;;;;;5.27;4.77;;;19.80;99.40;;;;;;5053950;28;20464;-58
2021/08/19 04:55:36;;;;;;;4.80;4.50;;;19.80;99.40;;;;;;5053937;28;20475;-55
2021/08/19 04:58:02;;;;;;;4.30;4.00;;;19.80;99.50;;;;;;5053503;28;20467;-58
2021/08/19 05:00:29;;;;;;;5.80;5.30;;;19.80;99.60;;;;;;5053734;28;20867;-56
2021/08/19 05:02:55;;;;;;;4.93;4.53;;;19.80;99.60;;;;;;5053481;28;20467;-54
2021/08/19 05:05:22;;;;;;;6.23;5.63;;;19.80;99.70;;;;;;5047119;28;20467;-58
2021/08/19 05:07:49;;;;;;;10.43;8.70;;;19.80;99.70;;;;;;5053254;28;20471;-57
2021/08/19 05:10:17;;;;;;;9.00;7.47;;;19.80;99.80;;;;;;5053714;28;20467;-55
2021/08/19 05:12:43;;;;;;;7.20;5.87;;;19.80;99.80;;;;;;5053263;28;20540;-56
2021/08/19 05:15:11;;;;;;;5.10;4.70;;;19.80;99.80;;;;;;5053459;28;20463;-56
2021/08/19 05:17:38;;;;;;;5.13;4.63;;;19.80;99.90;;;;;;5053751;28;20879;-54
2021/08/19 05:20:06;;;;;;;5.13;4.63;;;19.80;99.90;;;;;;5053037;28;20521;-55
2021/08/19 05:22:32;;;;;;;9.10;7.70;;;19.80;99.90;;;;;;5053371;28;21023;-54
2021/08/19 05:24:59;;;;;;;8.73;7.93;;;19.80;99.90;;;;;;5052906;28;20467;-55
2021/08/19 05:27:27;;;;;;;9.33;8.50;;;19.80;99.90;;;;;;5053277;28;20528;-55
2021/08/19 05:29:53;;;;;;;8.80;8.00;;;19.80;99.90;;;;;;5052544;28;20475;-58
2021/08/19 05:32:20;;;;;;;6.40;5.80;;;19.80;99.90;;;;;;5053254;28;20537;-58
2021/08/19 05:34:47;;;;;;;6.30;5.77;;;19.80;99.90;;;;;;5052732;28;20475;-55
2021/08/19 05:37:13;;;;;;;8.03;7.23;;;19.80;99.90;;;;;;5053036;28;20467;-58
2021/08/19 05:39:40;;;;;;;6.63;6.07;;;19.80;99.90;;;;;;5048568;28;21015;-57
2021/08/19 05:42:07;;;;;;;7.10;6.37;;;19.80;99.90;;;;;;5052837;28;20556;-58
2021/08/19 05:44:36;;;;;;;8.77;7.87;;;19.90;99.90;;;;;;5052892;28;20468;-58
2021/08/19 05:47:05;;;;;;;8.70;7.90;;;19.90;99.90;;;;;;5052549;28;20778;-58
2021/08/19 05:49:34;;;;;;;9.13;8.23;;;19.90;99.90;;;;;;5053077;28;20574;-56
2021/08/19 05:52:00;;;;;;;8.10;7.40;;;20.00;99.90;;;;;;5052611;28;20845;-56
2021/08/19 05:54:27;;;;;;;9.67;8.87;;;19.90;99.90;;;;;;5053085;28;20467;-57
2021/08/19 05:56:53;;;;;;;9.00;8.20;;;20.00;99.90;;;;;;5052124;28;20528;-57
2021/08/19 05:59:20;;;;;;;9.90;9.00;;;20.00;99.90;;;;;;5052572;28;21160;-58
2021/08/19 06:01:48;;;;;;;12.63;9.03;;;20.00;99.90;;;;;;5050597;28;20471;-57
2021/08/19 06:04:15;;;;;;;8.43;7.63;;;20.00;99.90;;;;;;5051077;28;20475;-57
2021/08/19 06:06:41;;;;;;;10.03;8.97;;;20.00;99.90;;;;;;5050912;28;20471;-57
2021/08/19 06:09:08;;;;;;;7.10;6.50;;;20.00;99.90;;;;;;5050485;28;20864;-56
2021/08/19 06:11:34;;;;;;;9.47;8.57;;;20.00;99.90;;;;;;5050788;28;20467;-54
2021/08/19 06:14:01;;;;;;;8.10;7.30;;;20.00;99.90;;;;;;5050582;28;20521;-57
2021/08/19 06:16:27;;;;;;;8.03;6.47;;;20.00;99.90;;;;;;5052163;28;20467;-56
2021/08/19 06:18:57;;;;;;;7.33;6.73;;;20.00;99.90;;;;;;5052176;28;20471;-58
2021/08/19 06:21:24;;;;;;;8.03;7.23;;;20.00;99.90;;;;;;5052483;28;20550;-55
2021/08/19 06:23:50;;;;;;;7.10;6.50;;;20.00;99.90;;;;;;5052072;28;20783;-58
2021/08/19 06:26:17;;;;;;;8.60;7.83;;;20.00;99.90;;;;;;5052513;28;20562;-56
2021/08/19 06:28:44;;;;;;;10.27;7.50;;;20.00;99.90;;;;;;5052311;28;20973;-58
2021/08/19 06:31:10;;;;;;;7.47;6.80;;;20.00;99.90;;;;;;5051814;28;20862;-58
2021/08/19 06:33:37;;;;;;;6.83;6.20;;;20.00;99.90;;;;;;5052558;28;20524;-58
2021/08/19 06:36:07;;;;;;;9.10;8.20;;;20.00;99.90;;;;;;5051758;28;20868;-59
2021/08/19 06:38:33;;;;;;;7.30;6.70;;;20.00;99.90;;;;;;5048751;28;20487;-53
2021/08/19 06:41:00;;;;;;;7.07;6.37;;;20.10;99.90;;;;;;5051726;28;20471;-58
2021/08/19 06:43:27;;;;;;;7.80;7.17;;;20.10;99.90;;;;;;5052209;28;20529;-56
2021/08/19 06:45:53;;;;;;;7.40;6.70;;;20.20;99.90;;;;;;5051769;28;21030;-58
2021/08/19 06:48:20;;;;;;;6.90;6.20;;;20.30;99.90;;;;;;5055327;28;20471;-55
2021/08/19 06:50:46;;;;;;;6.60;6.00;;;20.30;99.90;;;;;;5042825;28;20471;-55
2021/08/19 06:53:14;;;;;;;12.33;7.20;;;20.40;99.90;;;;;;5055858;28;20513;-56
2021/08/19 06:55:41;;;;;;;8.00;7.17;;;20.40;99.90;;;;;;5056088;28;20479;-56
2021/08/19 06:58:08;;;;;;;9.17;6.40;;;20.50;99.90;;;;;;5055459;28;20548;-55
2021/08/19 07:00:35;;;;;;;6.03;5.43;;;20.50;99.90;;;;;;5055845;28;20484;-59
2021/08/19 07:03:01;;;;;;;8.00;7.30;;;20.40;99.90;;;;;;5055820;28;20467;-55
2021/08/19 07:05:28;;;;;;;6.93;6.33;;;20.50;99.90;;;;;;5055806;28;20991;-58
2021/08/19 07:07:58;;;;;;;6.40;5.77;;;20.40;99.90;;;;;;5055610;28;20467;-58
2021/08/19 07:10:27;;;;;;;7.03;6.43;;;20.50;99.90;;;;;;5042940;28;20459;-58
2021/08/19 07:12:54;;;;;;;5.57;5.17;;;20.40;99.90;;;;;;5055540;28;21262;-54
2021/08/19 07:15:20;;;;;;;7.17;5.43;;;20.50;99.90;;;;;;5056077;28;20466;-57
2021/08/19 07:17:47;;;;;;;6.23;5.70;;;20.50;99.90;;;;;;5055647;28;20969;-58
2021/08/19 07:20:13;;;;;;;8.87;7.83;;;20.40;99.90;;;;;;5055277;28;20536;-57
2021/08/19 07:22:44;;;;;;;6.83;6.27;;;20.50;99.90;;;;;;5055786;28;20501;-55
2021/08/19 07:25:11;;;;;;;7.90;7.20;;;20.50;99.90;;;;;;5043572;28;22726;-56
2021/08/19 07:27:40;;;;;;;7.00;6.30;;;20.50;99.80;;;;;;5055507;28;20505;-55
2021/08/19 07:30:08;;;;;;;7.53;6.70;;;20.60;99.80;;;;;;5055094;28;20809;-56
2021/08/19 07:32:35;;;;;;;7.07;6.40;;;20.60;99.70;;;;;;5055482;28;20463;-58
2021/08/19 07:35:02;;;;;;;8.30;7.37;;;20.60;99.80;;;;;;5055031;28;20479;-57
2021/08/19 07:37:28;;;;;;;8.43;7.23;;;20.60;99.80;;;;;;5055549;28;20459;-59
2021/08/19 07:39:55;;;;;;;9.70;7.87;;;20.60;99.90;;;;;;5050902;28;20549;-57
2021/08/19 07:42:22;;;;;;;6.83;6.27;;;20.60;99.90;;;;;;5055230;28;20800;-55
2021/08/19 07:44:50;;;;;;;7.90;6.43;;;20.60;99.90;;;;;;5055167;28;20542;-57
2021/08/19 07:47:16;;;;;;;6.93;6.40;;;20.60;99.90;;;;;;5054680;28;20463;-55
2021/08/19 07:49:43;;;;;;;7.90;7.10;;;20.60;99.80;;;;;;5055256;28;20479;-56
2021/08/19 07:52:09;;;;;;;7.40;6.70;;;20.60;99.90;;;;;;5054698;28;20467;-57
2021/08/19 07:54:36;;;;;;;8.47;7.33;;;20.60;99.90;;;;;;5054989;28;20467;-57
2021/08/19 07:57:03;;;;;;;8.37;7.00;;;20.60;99.90;;;;;;5054517;28;20463;-56
2021/08/19 07:59:30;;;;;;;7.50;6.80;;;20.60;99.70;;;;;;5053669;28;20467;-57
2021/08/19 08:01:59;;;;;;;11.97;7.93;;;20.70;99.50;;;;;;5054565;28;20541;-57
2021/08/19 08:04:25;;;;;;;7.73;7.03;;;20.70;99.40;;;;;;5053276;28;20490;-56
2021/08/19 08:06:52;;;;;;;8.23;7.43;;;20.70;99.50;;;;;;5054120;28;20463;-57
2021/08/19 08:09:19;;;;;;;6.13;5.63;;;20.70;99.50;;;;;;5054221;28;21006;-57
2021/08/19 08:11:45;;;;;;;5.60;5.10;;;20.80;99.10;;;;;;5054881;28;20540;-56
2021/08/19 08:14:12;;;;;;;6.00;5.40;;;20.80;99.00;;;;;;5054152;28;20475;-57
2021/08/19 08:16:38;;;;;;;6.50;5.63;;;20.80;98.90;;;;;;5054368;28;20497;-58
2021/08/19 08:19:07;;;;;;;6.90;6.20;;;20.80;98.90;;;;;;5054129;28;20471;-56
2021/08/19 08:21:36;;;;;;;7.30;5.80;;;20.90;99.10;;;;;;5054496;28;20493;-57
2021/08/19 08:24:04;;;;;;;5.40;3.93;;;20.80;99.00;;;;;;5044353;28;20479;-55
2021/08/19 08:26:30;;;;;;;6.20;5.60;;;20.90;99.10;;;;;;5054727;28;20455;-52
2021/08/19 08:28:58;;;;;;;6.97;6.27;;;20.90;99.20;;;;;;5053952;28;20537;-57
2021/08/19 08:31:25;;;;;;;6.50;5.90;;;20.90;99.10;;;;;;5054351;28;20467;-58
2021/08/19 08:33:51;;;;;;;6.67;5.97;;;20.90;98.70;;;;;;5054401;28;20475;-58
2021/08/19 08:36:22;;;;;;;7.63;6.60;;;20.90;98.80;;;;;;5053919;28;20463;-56
2021/08/19 08:38:49;;;;;;;6.30;5.63;;;21.00;98.70;;;;;;5052525;28;20525;-58
2021/08/19 08:41:19;;;;;;;6.37;5.77;;;21.00;98.70;;;;;;5053884;28;20972;-55
2021/08/19 08:43:47;;;;;;;6.87;6.27;;;21.00;98.50;;;;;;5053978;28;20467;-58
2021/08/19 08:46:16;;;;;;;5.83;5.33;;;21.00;98.50;;;;;;5053742;28;20528;-55
2021/08/19 08:48:44;;;;;;;8.10;5.60;;;21.10;98.50;;;;;;5054004;28;21213;-58
2021/08/19 08:51:12;;;;;;;6.53;6.00;;;21.10;98.40;;;;;;5053654;28;20475;-58
2021/08/19 08:53:41;;;;;;;7.00;6.30;;;21.10;98.40;;;;;;5053736;28;20537;-58
2021/08/19 08:56:08;;;;;;;5.90;5.40;;;21.20;98.30;;;;;;5053499;28;20469;-57
2021/08/19 08:58:34;;;;;;;5.67;5.17;;;21.20;98.30;;;;;;5053680;28;20482;-56
2021/08/19 09:01:01;;;;;;;5.87;5.23;;;21.20;98.10;;;;;;5044470;28;20463;-55
2021/08/19 09:03:27;;;;;;;7.00;6.07;;;21.20;97.90;;;;;;5053188;28;21019;-56
2021/08/19 09:05:54;;;;;;;6.87;5.60;;;21.30;97.80;;;;;;5053699;28;20916;-56
2021/08/19 09:08:22;;;;;;;4.63;4.23;;;21.30;97.90;;;;;;5052713;28;20468;-55
2021/08/19 09:10:53;;;;;;;5.83;5.33;;;21.30;98.00;;;;;;5053431;28;20541;-58
2021/08/19 09:13:23;;;;;;;5.80;5.30;;;21.30;97.90;;;;;;5039921;28;20467;-57
2021/08/19 09:15:51;;;;;;;5.30;4.80;;;21.40;97.60;;;;;;5053604;28;20589;-54
2021/08/19 09:18:31;;;;;;;5.50;5.00;;;21.30;97.60;;;;;;5053218;28;20475;-55
2021/08/19 09:20:58;;;;;;;4.43;4.13;;;21.40;97.50;;;;;;5053444;28;20471;-56
2021/08/19 09:23:25;;;;;;;5.37;4.87;;;21.40;97.30;;;;;;5050743;28;20464;-58
2021/08/19 09:25:53;;;;;;;7.90;4.80;;;21.50;97.10;;;;;;5050031;28;20856;-55
2021/08/19 09:28:22;;;;;;;5.80;5.20;;;21.50;97.10;;;;;;5052910;28;20474;-58
2021/08/19 09:30:51;;;;;;;5.17;4.67;;;21.60;97.00;;;;;;5035209;28;20522;-58
2021/08/19 09:33:20;;;;;;;5.63;4.93;;;21.60;96.90;;;;;;5045211;28;20475;-54
2021/08/19 09:35:48;;;;;;;7.97;5.83;;;21.70;96.70;;;;;;5053248;28;20474;-54
2021/08/19 09:38:16;;;;;;;6.17;5.60;;;21.70;96.50;;;;;;5051746;28;20856;-57
2021/08/19 09:40:44;;;;;;;7.87;7.23;;;21.80;96.40;;;;;;5040242;28;20467;-56
2021/08/19 09:43:14;;;;;;;7.27;6.67;;;21.80;96.20;;;;;;5052518;28;20514;-56
2021/08/19 09:45:46;;;;;;;7.40;6.50;;;21.80;96.20;;;;;;5052869;28;20965;-57
2021/08/19 09:48:15;;;;;;;7.23;5.37;;;21.90;96.20;;;;;;5052233;28;20473;-57
2021/08/19 09:50:43;;;;;;;4.70;4.30;;;21.90;96.20;;;;;;5052969;28;20463;-55
2021/08/19 09:53:23;;;;;;;6.43;4.90;;;21.90;96.20;;;;;;5052543;28;20478;-56
2021/08/19 09:55:51;;;;;;;3.60;3.40;;;21.90;96.30;;;;;;5052976;28;20502;-56
2021/08/19 09:58:33;;;;;;;4.80;4.37;;;21.90;96.40;;;;;;5052181;28;20536;-55
2021/08/19 10:01:00;;;;;;;4.93;4.40;;;21.90;96.50;;;;;;5052865;28;20833;-57
2021/08/19 10:03:28;;;;;;;5.23;4.73;;;22.00;96.60;;;;;;5052490;28;20896;-58
2021/08/19 10:05:55;;;;;;;4.97;4.20;;;21.90;96.70;;;;;;5052706;28;20597;-57
2021/08/19 10:08:23;;;;;;;5.20;4.60;;;21.90;96.90;;;;;;5052302;28;20563;-58
2021/08/19 10:10:52;;;;;;;5.57;5.00;;;21.90;97.00;;;;;;5052600;28;20525;-58
2021/08/19 10:13:19;;;;;;;8.27;5.30;;;21.90;97.20;;;;;;5052199;28;20529;-58
2021/08/19 10:15:49;;;;;;;7.10;6.00;;;22.00;97.30;;;;;;5052612;28;20469;-58
2021/08/19 10:18:19;;;;;;;7.80;5.97;;;21.90;97.50;;;;;;5051950;28;20478;-56
2021/08/19 10:20:53;;;;;;;4.60;4.23;;;21.80;97.60;;;;;;5052369;28;20524;-56
2021/08/19 10:23:22;;;;;;;7.30;6.60;;;21.80;97.70;;;;;;5050023;28;20920;-57
2021/08/19 10:26:01;;;;;;;6.70;6.00;;;21.80;97.60;;;;;;5049586;28;20529;-57
2021/08/19 10:28:28;;;;;;;6.87;6.27;;;21.80;97.60;;;;;;5051856;28;20467;-56
2021/08/19 10:30:58;;;;;;;6.57;5.97;;;21.80;97.50;;;;;;5052331;28;20525;-57
2021/08/19 10:33:47;;;;;;;5.93;5.00;;;21.70;97.50;;;;;;5052248;28;20944;-56
2021/08/19 10:36:48;;;;;;;5.40;4.90;;;21.70;97.50;;;;;;5041914;28;20471;-55
2021/08/19 10:39:37;;;;;;;5.93;5.17;;;21.70;97.40;;;;;;5039766;28;20478;-58
2021/08/19 10:42:08;;;;;;;4.83;4.43;;;21.70;97.60;;;;;;5052416;28;20495;-57
2021/08/19 10:44:36;;;;;;;5.47;4.97;;;21.80;97.70;;;;;;5052085;28;20460;-56
2021/08/19 10:47:05;;;;;;;6.10;5.60;;;21.90;97.60;;;;;;5052312;28;20471;-57
2021/08/19 10:49:33;;;;;;;6.60;5.87;;;22.00;97.20;;;;;;5051863;28;20466;-56
2021/08/19 10:52:28;;;;;;;6.47;5.80;;;22.10;96.80;;;;;;5052117;28;20466;-56
2021/08/19 10:55:16;;;;;;;4.97;4.50;;;22.20;96.60;;;;;;5051925;28;20499;-57
2021/08/19 10:57:55;;;;;;;5.97;5.47;;;22.30;96.70;;;;;;5052254;28;20475;-57
2021/08/19 11:00:41;;;;;;;6.70;6.00;;;22.40;96.60;;;;;;5040255;28;20459;-59
2021/08/19 11:03:44;;;;;;;6.83;6.30;;;22.40;96.40;;;;;;5051573;28;20467;-58
2021/08/19 11:06:14;;;;;;;11.80;6.13;;;22.50;96.50;;;;;;5049703;28;20864;-58
2021/08/19 11:08:44;;;;;;;5.87;4.73;;;22.50;96.50;;;;;;5051948;28;20517;-58
2021/08/19 11:11:13;;;;;;;6.30;5.50;;;22.50;96.40;;;;;;5051894;28;20471;-57
2021/08/19 11:13:40;;;;;;;5.10;4.60;;;22.60;96.40;;;;;;5051812;28;20471;-58
2021/08/19 11:16:08;;;;;;;7.20;6.07;;;22.60;96.30;;;;;;5051580;28;20953;-56
2021/08/19 11:18:36;;;;;;;6.50;5.77;;;22.70;96.00;;;;;;5039003;28;20467;-55
2021/08/19 11:21:05;;;;;;;7.60;6.30;;;22.80;96.10;;;;;;5051540;28;21023;-57
2021/08/19 11:23:34;;;;;;;7.47;6.70;;;22.70;96.00;;;;;;5052048;28;20467;-58
2021/08/19 11:26:03;;;;;;;9.20;6.80;;;22.80;95.70;;;;;;5051675;28;20467;-57
2021/08/19 11:28:41;;;;;;;7.40;6.67;;;22.80;95.30;;;;;;5051646;28;20478;-57
2021/08/19 11:31:17;;;;;;;8.03;7.33;;;22.90;95.20;;;;;;5051299;28;20467;-56
2021/08/19 11:33:45;;;;;;;7.93;6.80;;;22.90;95.00;;;;;;5053900;28;20466;-53
2021/08/19 11:36:12;;;;;;;5.70;5.20;;;22.90;94.60;;;;;;5055087;28;20540;-56
2021/08/19 11:38:41;;;;;;;7.03;5.17;;;22.90;94.50;;;;;;5050958;28;20468;-56
2021/08/19 11:41:20;;;;;;;5.40;4.60;;;22.80;94.30;;;;;;5053285;28;20482;-58
2021/08/19 11:43:48;;;;;;;4.60;4.20;;;22.80;94.40;;;;;;5055010;28;21058;-57
2021/08/19 11:46:19;;;;;;;11.20;10.20;;;22.80;94.70;;;;;;5055018;28;20953;-58
2021/08/19 11:48:51;;;;;;;9.13;7.63;;;22.80;94.70;;;;;;5055155;28;20537;-59
2021/08/19 11:51:22;;;;;;;7.20;6.50;;;22.80;94.70;;;;;;5054783;28;20794;-58
2021/08/19 11:54:01;;;;;;;6.00;5.40;;;22.90;94.40;;;;;;5055185;28;20494;-57
2021/08/19 11:56:29;;;;;;;7.83;7.20;;;22.90;93.90;;;;;;5055068;28;20843;-56
2021/08/19 11:59:06;;;;;;;8.13;7.40;;;23.00;93.70;;;;;;5054833;28;20585;-57
2021/08/19 12:01:34;;;;;;;7.97;7.27;;;23.00;93.60;;;;;;5054727;28;20548;-57
2021/08/19 12:04:01;;;;;;;5.07;4.57;;;23.00;93.70;;;;;;5055006;28;20957;-57
2021/08/19 12:06:30;;;;;;;6.10;4.87;;;23.00;93.90;;;;;;5054468;28;20778;-56
2021/08/19 12:09:00;;;;;;;9.17;8.27;;;23.00;93.90;;;;;;5054706;28;21034;-57
2021/08/19 12:11:29;;;;;;;7.43;6.77;;;23.00;93.90;;;;;;5054395;28;20474;-57
2021/08/19 12:13:58;;;;;;;8.13;7.00;;;23.10;93.50;;;;;;5054791;28;20816;-56
2021/08/19 12:16:27;;;;;;;8.13;7.40;;;23.20;93.20;;;;;;5054108;28;20467;-57
2021/08/19 12:19:11;;;;;;;6.87;6.27;;;23.30;93.30;;;;;;5054893;28;20471;-58
2021/08/19 12:21:39;;;;;;;5.87;5.33;;;23.30;93.80;;;;;;5054424;28;20525;-58
2021/08/19 12:24:18;;;;;;;11.10;9.50;;;23.30;93.90;;;;;;5048878;28;20555;-58
2021/08/19 12:27:04;;;;;;;8.47;7.47;;;23.40;93.90;;;;;;5041521;28;21262;-57
2021/08/19 12:29:32;;;;;;;8.80;6.97;;;23.50;93.90;;;;;;5060340;28;20521;-57
2021/08/19 12:32:01;;;;;;;7.10;6.50;;;23.50;93.90;;;;;;5054646;28;20530;-57
2021/08/19 12:34:27;;;;;;;8.30;5.77;;;23.60;93.80;;;;;;5053955;28;20471;-57
2021/08/19 12:36:54;;;;;;;7.90;6.10;;;23.60;93.80;;;;;;5054410;28;20536;-58
2021/08/19 12:39:24;;;;;;;8.03;7.23;;;23.60;93.70;;;;;;5047524;28;20475;-57
2021/08/19 12:42:04;;;;;;;6.43;5.93;;;23.70;93.40;;;;;;5054253;28;20959;-57
2021/08/19 12:44:31;;;;;;;7.50;6.80;;;23.70;93.30;;;;;;5052750;28;20812;-54
2021/08/19 12:46:58;;;;;;;10.53;9.43;;;23.80;93.20;;;;;;5054064;28;20463;-58
2021/08/19 12:49:30;;;;;;;7.20;6.60;;;23.80;92.90;;;;;;5053949;28;20551;-57
2021/08/19 12:52:21;;;;;;;7.60;6.63;;;23.80;92.70;;;;;;5053810;28;20824;-56